Alexander, AR

10:55 PM CDT on September 20, 2014 (GMT -0500)
Salem | Change Station
CLOSE
Current Station
Personal Weather Station
Location: Benton, AR
Elevation: 456 ft
Nearby Weather Stations

Elev 456 ft 34.63 °N, 92.56 °W | Updated 158 days ago

Partly Cloudy
Partly Cloudy
75 °F
Feels Like 75 °F
N
2
Wind Variable Wind from SSW
Gusts 5 mph

Today
High -- | Low -- °F
--% Chance of Precip.
Yesterday
High -- | Low -- °F
Precip. -- in
6:56 AM 7:09 PM
Waning Crescent, 9% visible
Pressure 30.01 in
Visibility 10.0 miles
Clouds Clear
Dew Point 66 °F
Humidity 76%
Rainfall 0.00 in
Snow Depth Not available.
UV 0.0 out of 12
Pollen 10.10 out of 12
Air Quality Not available.
Flu Activity Not available.
METAR KLIT 210253Z 00000KT 10SM CLR 25/20 A3001 RMK AO2 SLP161 T02500200 51019

More Conditions Fewer Conditions

Pressure 30.01 in
Visibility 10.0 miles
Clouds Clear
Dew Point 66 °F
Humidity 76%
Rainfall 0.00 in
Snow Depth Not available.
UV 0.0 out of 12
Pollen 10.10 out of 12
Air Quality Not available.
Flu Activity Not available.
METAR KLIT 210253Z 00000KT 10SM CLR 25/20 A3001 RMK AO2 SLP161 T02500200 51019

More Conditions Fewer Conditions

10-Day Weather Forecast

Almanac

Astronomy

Sep. 20, 2014 Rise Set
Actual Time 6:56 AM CDT 7:09 PM CDT
Civil Twilight 6:31 AM CDT 7:34 PM CDT
Nautical Twilight 6:02 AM CDT 8:04 PM CDT
Astronomical Twilight 5:32 AM CDT 8:34 PM CDT
Moon 3:43 AM CDT (9/20) 5:08 PM CDT (9/20)
Length of Visible Light 13h 03m
Length of Day
12h 12m
Tomorrow will be 2m 9s shorter.
Waning Crescent, 9% of the Moon is Illuminated
Today
Waning Crescent
Sep 24
New
Oct 1
First Quarter
Oct 8
Full
Oct 15
Last Quarter

Today's Extremes

State Highs State Lows

Community

WunderPhotos

Upload Photos

1,755,072 photos uploaded!

Nearby

Snow Depth

Station Depth Elevation
No new snow has been reported.

Earthquake Activity

City Distance Mag. Time & Date
No recent earthquake activity has been reported nearby.
Minimum magnitude displayed is 2.5.

Coastal Water Temperatures

Place Temperature
No Stations Reporting

Nearby Weather Stations